createdAt,value
2023-01-10T00:00:00.143Z,991.77
2023-01-10T00:05:00.214Z,991.87
2023-01-10T00:10:00.144Z,991.81
2023-01-10T00:15:00.130Z,991.87
2023-01-10T00:20:00.132Z,991.88
2023-01-10T00:25:00.123Z,991.91
2023-01-10T00:30:00.169Z,991.86
2023-01-10T00:35:00.116Z,991.93
2023-01-10T00:40:00.101Z,992.03
2023-01-10T00:45:00.093Z,992.03
2023-01-10T00:50:00.123Z,992.31
2023-01-10T00:55:00.132Z,992.32
2023-01-10T01:00:00.167Z,992.39
2023-01-10T01:05:00.149Z,992.48
2023-01-10T01:10:00.123Z,992.59
2023-01-10T01:15:00.146Z,992.68
2023-01-10T01:20:00.116Z,992.76
2023-01-10T01:25:00.147Z,992.87
2023-01-10T01:30:00.124Z,992.96
2023-01-10T01:35:00.219Z,993.08
2023-01-10T01:40:00.112Z,993.21
2023-01-10T01:45:00.101Z,993.28
2023-01-10T01:50:00.141Z,993.39
2023-01-10T01:55:00.133Z,993.4
2023-01-10T02:00:00.164Z,993.47
2023-01-10T02:05:00.097Z,993.43
2023-01-10T02:10:00.142Z,993.54
2023-01-10T02:15:00.145Z,993.63
2023-01-10T02:20:00.125Z,993.66
2023-01-10T02:25:00.120Z,993.63
2023-01-10T02:30:00.152Z,993.8
2023-01-10T02:35:00.128Z,993.83
2023-01-10T02:40:00.147Z,993.92
2023-01-10T02:45:00.129Z,993.97
2023-01-10T02:50:00.136Z,994
2023-01-10T02:55:00.139Z,994.01
2023-01-10T03:00:00.151Z,994.04
2023-01-10T03:05:00.165Z,994.1
2023-01-10T03:10:00.144Z,994.25
2023-01-10T03:15:00.160Z,994.25
2023-01-10T03:20:00.105Z,994.36
2023-01-10T03:25:00.128Z,994.49
2023-01-10T03:30:00.151Z,994.56
2023-01-10T03:35:00.122Z,994.61
2023-01-10T03:40:00.129Z,994.86
2023-01-10T03:45:00.108Z,995.02
2023-01-10T03:50:00.165Z,995.19
2023-01-10T03:55:00.224Z,995.28
2023-01-10T04:00:00.196Z,995.33
2023-01-10T04:05:00.116Z,995.52
2023-01-10T04:10:00.176Z,995.5
2023-01-10T04:15:00.133Z,995.56
2023-01-10T04:20:00.131Z,995.6
2023-01-10T04:25:00.129Z,995.82
2023-01-10T04:30:00.125Z,995.24
2023-01-10T04:35:00.148Z,995.39
2023-01-10T04:40:00.113Z,995.47
2023-01-10T04:45:00.117Z,995.54
2023-01-10T04:50:00.116Z,995.66
2023-01-10T04:55:00.185Z,995.84
2023-01-10T05:00:00.142Z,995.76
2023-01-10T05:05:00.103Z,996.04
2023-01-10T05:10:00.107Z,996.08
2023-01-10T05:15:00.121Z,996.19
2023-01-10T05:20:01.123Z,996.26
2023-01-10T05:25:00.131Z,996.44
2023-01-10T05:30:00.148Z,996.47
2023-01-10T05:35:00.139Z,996.43
2023-01-10T05:40:00.143Z,996.65
2023-01-10T05:45:00.123Z,996.74
2023-01-10T05:50:00.145Z,996.73
2023-01-10T05:55:00.136Z,996.85
2023-01-10T06:00:00.163Z,996.92
2023-01-10T06:05:00.111Z,996.98
2023-01-10T06:10:00.121Z,997.07
2023-01-10T06:15:00.119Z,997.24
2023-01-10T06:20:00.103Z,997.29
2023-01-10T06:25:02.305Z,997.51
2023-01-10T06:30:00.117Z,997.49
2023-01-10T06:35:00.143Z,997.83
2023-01-10T06:40:00.118Z,997.78
2023-01-10T06:45:00.122Z,997.88
2023-01-10T06:50:00.147Z,998.01
2023-01-10T06:55:00.131Z,998.07
2023-01-10T07:00:00.127Z,998.13
2023-01-10T07:05:00.115Z,998.2
2023-01-10T07:10:00.126Z,998.48
2023-01-10T07:15:00.115Z,998.45
2023-01-10T07:20:00.125Z,998.67
2023-01-10T07:25:00.117Z,998.72
2023-01-10T07:30:00.149Z,998.78
2023-01-10T07:35:00.142Z,998.9
2023-01-10T07:40:00.143Z,998.99
2023-01-10T07:45:00.129Z,999.12
2023-01-10T07:50:00.141Z,999.21
2023-01-10T07:55:00.150Z,999.35
2023-01-10T08:00:00.190Z,999.39
2023-01-10T08:05:00.137Z,999.53
2023-01-10T08:10:00.125Z,999.59
2023-01-10T08:15:00.157Z,999.66
2023-01-10T08:20:00.135Z,999.71
2023-01-10T08:25:00.100Z,999.79
2023-01-10T08:30:00.168Z,999.88
2023-01-10T08:35:00.177Z,1000.08
2023-01-10T08:40:00.141Z,1000.23
2023-01-10T08:45:00.535Z,1000.22
2023-01-10T08:50:00.138Z,1000.24
2023-01-10T08:55:00.155Z,1000.33
2023-01-10T09:00:00.120Z,1000.28
2023-01-10T09:05:00.116Z,1000.36
2023-01-10T09:10:00.134Z,1000.39
2023-01-10T09:15:00.195Z,1000.47
2023-01-10T09:20:00.159Z,1000.49
2023-01-10T09:25:00.124Z,1000.58
2023-01-10T09:30:00.177Z,1000.74
2023-01-10T09:35:00.141Z,1000.74
2023-01-10T09:40:00.163Z,1000.75
2023-01-10T09:45:00.144Z,1000.85
2023-01-10T09:50:00.164Z,1000.94
2023-01-10T09:55:00.122Z,1000.9
2023-01-10T10:00:00.158Z,1000.86
2023-01-10T10:05:00.129Z,1000.94
2023-01-10T10:10:00.124Z,1000.97
2023-01-10T10:15:00.135Z,1001.12
2023-01-10T10:20:00.132Z,1001.11
2023-01-10T10:25:00.117Z,1001.27
2023-01-10T10:30:00.120Z,1001.34
2023-01-10T10:35:00.145Z,1001.32
2023-01-10T10:40:00.165Z,1001.27
2023-01-10T10:45:00.138Z,1001.23
2023-01-10T10:50:00.111Z,1001.18
2023-01-10T10:55:00.142Z,1001.01
2023-01-10T11:00:00.132Z,1000.94
2023-01-10T11:05:00.262Z,1001.11
2023-01-10T11:10:00.132Z,1001.15
2023-01-10T11:15:00.130Z,1001.02
2023-01-10T11:20:00.149Z,1001.14
2023-01-10T11:25:00.107Z,1001.2
2023-01-10T11:30:00.171Z,1001.24
2023-01-10T11:35:00.122Z,1001.35
2023-01-10T11:40:00.139Z,1001.47
2023-01-10T11:45:00.123Z,1001.35
2023-01-10T11:50:00.165Z,1001.32
2023-01-10T11:55:00.135Z,1001.49
2023-01-10T12:00:00.189Z,1001.41
2023-01-10T12:05:00.208Z,1001.47
2023-01-10T12:10:00.096Z,1001.49
2023-01-10T12:15:00.144Z,1001.48
2023-01-10T12:20:00.216Z,1001.57
2023-01-10T12:25:00.133Z,1001.65
2023-01-10T12:30:00.132Z,1001.64
2023-01-10T12:35:00.140Z,1001.66
2023-01-10T12:40:00.117Z,1001.59
2023-01-10T12:45:00.097Z,1001.71
2023-01-10T12:50:00.156Z,1001.75
2023-01-10T12:55:00.139Z,1001.81
2023-01-10T13:00:00.156Z,1001.94
2023-01-10T13:05:00.140Z,1001.82
2023-01-10T13:10:00.114Z,1001.73
2023-01-10T13:15:00.175Z,1001.79
2023-01-10T13:20:00.136Z,1001.75
2023-01-10T13:25:00.155Z,1001.79
2023-01-10T13:30:00.122Z,1001.79
2023-01-10T13:35:00.141Z,1001.68
2023-01-10T13:40:00.146Z,1001.79
2023-01-10T13:45:00.107Z,1001.8
2023-01-10T13:50:00.133Z,1001.84
2023-01-10T13:55:00.180Z,1001.89
2023-01-10T14:00:00.310Z,1001.89
2023-01-10T14:05:00.112Z,1001.97
2023-01-10T14:10:00.137Z,1002
2023-01-10T14:15:00.172Z,1001.92
2023-01-10T14:20:00.133Z,1001.88
2023-01-10T14:25:00.138Z,1001.99
2023-01-10T14:30:00.127Z,1001.96
2023-01-10T14:35:00.147Z,1002.04
2023-01-10T14:40:00.137Z,1002.05
2023-01-10T14:45:00.126Z,1001.97
2023-01-10T14:50:00.128Z,1002.02
2023-01-10T14:55:00.135Z,1001.99
2023-01-10T15:00:00.142Z,1001.97
2023-01-10T15:05:00.198Z,1002
2023-01-10T15:10:00.120Z,1001.94
2023-01-10T15:15:00.157Z,1001.92
2023-01-10T15:20:00.131Z,1001.97
2023-01-10T15:25:00.115Z,1001.96
2023-01-10T15:30:00.162Z,1001.98
2023-01-10T15:35:00.170Z,1001.93
2023-01-10T15:40:00.208Z,1001.89
2023-01-10T15:45:00.127Z,1001.89
2023-01-10T15:50:00.168Z,1001.86
2023-01-10T15:55:00.126Z,1001.86
2023-01-10T16:00:00.245Z,1001.85
2023-01-10T16:05:00.144Z,1001.82
2023-01-10T16:10:00.119Z,1001.93
2023-01-10T16:15:00.132Z,1001.94
2023-01-10T16:20:00.171Z,1001.87
2023-01-10T16:25:00.107Z,1001.87
2023-01-10T16:30:00.116Z,1001.87
2023-01-10T16:35:00.154Z,1001.76
2023-01-10T16:40:00.160Z,1001.84
2023-01-10T16:45:00.104Z,1001.81
2023-01-10T16:50:00.115Z,1001.78
2023-01-10T16:55:00.150Z,1001.86
2023-01-10T17:00:00.126Z,1001.97
2023-01-10T17:05:00.125Z,1001.9
2023-01-10T17:10:00.131Z,1001.99
2023-01-10T17:15:00.118Z,1001.99
2023-01-10T17:20:00.134Z,1001.86
2023-01-10T17:25:00.097Z,1001.86
2023-01-10T17:30:00.139Z,1001.78
2023-01-10T17:35:00.136Z,1001.73
2023-01-10T17:40:00.107Z,1001.69
2023-01-10T17:45:00.079Z,1001.66
2023-01-10T17:50:00.148Z,1001.9
2023-01-10T17:55:00.127Z,1001.9
2023-01-10T18:00:00.180Z,1001.9
2023-01-10T18:05:00.114Z,1001.71
2023-01-10T18:10:00.134Z,1001.83
2023-01-10T18:15:00.112Z,1001.64
2023-01-10T18:20:00.140Z,1001.63
2023-01-10T18:25:00.154Z,1001.66
2023-01-10T18:30:00.142Z,1001.59
2023-01-10T18:35:00.135Z,1001.59
2023-01-10T18:40:00.126Z,1001.6
2023-01-10T18:45:00.132Z,1001.63
2023-01-10T18:50:00.115Z,1001.52
2023-01-10T18:55:02.217Z,1001.49
2023-01-10T19:00:00.147Z,1001.38
2023-01-10T19:05:00.133Z,1001.23
2023-01-10T19:10:00.113Z,1001.2
2023-01-10T19:15:00.218Z,1001.16
2023-01-10T19:20:00.135Z,1001.11
2023-01-10T19:25:00.218Z,1001.09
2023-01-10T19:30:00.196Z,1001.17
2023-01-10T19:35:00.156Z,1001.09
2023-01-10T19:40:00.128Z,1001.07
2023-01-10T19:45:00.123Z,1000.94
2023-01-10T19:50:00.141Z,1000.97
2023-01-10T19:55:00.147Z,1001
2023-01-10T20:00:00.192Z,1000.98
2023-01-10T20:05:00.126Z,1000.92
2023-01-10T20:10:00.114Z,1000.67
2023-01-10T20:15:00.124Z,1000.78
2023-01-10T20:20:00.137Z,1000.65
2023-01-10T20:25:00.124Z,1000.77
2023-01-10T20:30:00.127Z,1000.68
2023-01-10T20:35:00.134Z,1000.6
2023-01-10T20:40:00.127Z,1000.53
2023-01-10T20:45:00.144Z,1000.45
2023-01-10T20:50:00.169Z,1000.43
2023-01-10T20:55:00.156Z,1000.38
2023-01-10T21:00:00.144Z,1000.38
2023-01-10T21:05:00.103Z,1000.29
2023-01-10T21:10:00.151Z,1000.38
2023-01-10T21:15:00.116Z,1000.37
2023-01-10T21:20:00.137Z,1000.3
2023-01-10T21:25:00.135Z,1000.21
2023-01-10T21:30:00.141Z,1000.63
2023-01-10T21:35:00.126Z,1000.64
2023-01-10T21:40:00.105Z,1000.58
2023-01-10T21:45:00.147Z,1000.5
2023-01-10T21:50:00.112Z,1000.44
2023-01-10T21:55:00.129Z,1000.38
2023-01-10T22:00:00.133Z,1000.39
2023-01-10T22:05:00.143Z,1000.3
2023-01-10T22:10:00.107Z,1000.17
2023-01-10T22:15:00.148Z,1000.37
2023-01-10T22:20:00.113Z,1000.23
2023-01-10T22:25:00.127Z,1000.12
2023-01-10T22:30:00.146Z,1000.09
2023-01-10T22:35:00.139Z,999.95
2023-01-10T22:40:00.107Z,999.81
2023-01-10T22:45:00.129Z,999.83
2023-01-10T22:50:00.114Z,999.71
2023-01-10T22:55:00.129Z,999.63
2023-01-10T23:00:00.189Z,999.49
2023-01-10T23:05:00.110Z,999.38
2023-01-10T23:10:00.114Z,999.3
2023-01-10T23:15:00.150Z,999.35
2023-01-10T23:20:00.123Z,999.34
2023-01-10T23:25:00.125Z,999.27
2023-01-10T23:30:00.118Z,999.24
2023-01-10T23:35:00.162Z,999.1
2023-01-10T23:40:00.102Z,999.13
2023-01-10T23:45:00.123Z,999.03
2023-01-10T23:50:00.111Z,998.98
2023-01-10T23:55:00.128Z,998.86
